Terminal Aerodrome Forecast
Issued by NWS

Home | Current Version | Previous Version | Text Only | Print | Product List | Glossary On
Versions: 1 2 3 4 5 6 7 8 9 10 11 12 13 14
000
FTUS43 KSGF 242308 AAA
TAFJLN
TAF AMD
KJLN 242308Z 2423/2518 16012KT P6SM VCTS BKN080CB
      TEMPO 2423/2501 3SM TSRA BKN050CB
     FM250100 16006KT P6SM BKN250
     FM251200 19006KT P6SM BKN200 PROB30 2512/2518 4SM -TSRA
      OVC025CB=

USA.gov is the U.S. government's official web portal to all federal, state and local government web resources and services.